sensor_id;sensor_type;location;lat;lon;timestamp;temperature;humidity
29551;DHT22;16488;52.396;10.696;2022-08-11T00:02:32;16.90;97.00
29551;DHT22;16488;52.396;10.696;2022-08-11T00:05:08;16.90;97.50
29551;DHT22;16488;52.396;10.696;2022-08-11T00:07:52;16.80;97.70
29551;DHT22;16488;52.396;10.696;2022-08-11T00:10:23;16.80;98.00
29551;DHT22;16488;52.396;10.696;2022-08-11T00:12:56;16.70;98.20
29551;DHT22;16488;52.396;10.696;2022-08-11T00:15:23;16.70;98.30
29551;DHT22;16488;52.396;10.696;2022-08-11T00:17:56;16.70;98.50
29551;DHT22;16488;52.396;10.696;2022-08-11T00:20:31;16.70;98.60
29551;DHT22;16488;52.396;10.696;2022-08-11T00:23:04;16.70;98.70
29551;DHT22;16488;52.396;10.696;2022-08-11T00:25:40;16.70;98.90
29551;DHT22;16488;52.396;10.696;2022-08-11T00:28:29;16.60;99.00
29551;DHT22;16488;52.396;10.696;2022-08-11T00:30:57;16.60;99.30
29551;DHT22;16488;52.396;10.696;2022-08-11T00:33:29;16.60;99.30
29551;DHT22;16488;52.396;10.696;2022-08-11T00:35:58;16.60;99.40
29551;DHT22;16488;52.396;10.696;2022-08-11T00:38:28;16.60;99.60
29551;DHT22;16488;52.396;10.696;2022-08-11T00:41:54;16.60;99.70
29551;DHT22;16488;52.396;10.696;2022-08-11T00:49:26;16.60;99.90
29551;DHT22;16488;52.396;10.696;2022-08-11T01:00:32;16.30;99.90
29551;DHT22;16488;52.396;10.696;2022-08-11T01:26:53;16.20;99.90
29551;DHT22;16488;52.396;10.696;2022-08-11T01:29:18;16.20;99.90
29551;DHT22;16488;52.396;10.696;2022-08-11T01:35:26;16.00;99.90
29551;DHT22;16488;52.396;10.696;2022-08-11T01:47:46;15.80;99.90
29551;DHT22;16488;52.396;10.696;2022-08-11T01:50:27;15.70;99.90
29551;DHT22;16488;52.396;10.696;2022-08-11T01:53:25;15.70;99.90
29551;DHT22;16488;52.396;10.696;2022-08-11T02:01:27;15.50;99.90
29551;DHT22;16488;52.396;10.696;2022-08-11T02:03:58;15.50;99.90
29551;DHT22;16488;52.396;10.696;2022-08-11T02:06:43;15.50;99.90
29551;DHT22;16488;52.396;10.696;2022-08-11T02:12:57;15.40;99.90
29551;DHT22;16488;52.396;10.696;2022-08-11T02:15:40;15.40;99.90
29551;DHT22;16488;52.396;10.696;2022-08-11T02:20:47;15.40;99.90
29551;DHT22;16488;52.396;10.696;2022-08-11T02:23:48;15.30;99.90
29551;DHT22;16488;52.396;10.696;2022-08-11T02:26:30;15.30;99.90
29551;DHT22;16488;52.396;10.696;2022-08-11T02:31:45;15.30;99.90
29551;DHT22;16488;52.396;10.696;2022-08-11T02:35:09;15.20;99.90
29551;DHT22;16488;52.396;10.696;2022-08-11T02:37:47;15.20;99.90
29551;DHT22;16488;52.396;10.696;2022-08-11T02:40:27;15.10;99.90
29551;DHT22;16488;52.396;10.696;2022-08-11T02:52:06;14.60;99.90
29551;DHT22;16488;52.396;10.696;2022-08-11T02:54:57;14.60;99.90
29551;DHT22;16488;52.396;10.696;2022-08-11T02:57:32;14.40;99.90
29551;DHT22;16488;52.396;10.696;2022-08-11T03:00:04;14.40;99.90
29551;DHT22;16488;52.396;10.696;2022-08-11T03:05:21;14.50;99.90
29551;DHT22;16488;52.396;10.696;2022-08-11T03:14:51;14.50;99.90
29551;DHT22;16488;52.396;10.696;2022-08-11T03:20:43;14.60;99.90
29551;DHT22;16488;52.396;10.696;2022-08-11T03:23:30;14.60;99.90
29551;DHT22;16488;52.396;10.696;2022-08-11T03:26:21;14.60;99.90
29551;DHT22;16488;52.396;10.696;2022-08-11T03:29:10;14.50;99.90
29551;DHT22;16488;52.396;10.696;2022-08-11T03:31:51;14.50;99.90
29551;DHT22;16488;52.396;10.696;2022-08-11T03:34:26;14.40;99.90
29551;DHT22;16488;52.396;10.696;2022-08-11T03:37:28;14.30;99.90
29551;DHT22;16488;52.396;10.696;2022-08-11T03:40:34;14.30;99.90
29551;DHT22;16488;52.396;10.696;2022-08-11T03:43:37;14.10;99.90
29551;DHT22;16488;52.396;10.696;2022-08-11T03:46:13;13.90;99.90
29551;DHT22;16488;52.396;10.696;2022-08-11T03:49:02;13.90;99.90
29551;DHT22;16488;52.396;10.696;2022-08-11T03:51:49;13.90;99.90
29551;DHT22;16488;52.396;10.696;2022-08-11T03:54:53;14.00;99.90
29551;DHT22;16488;52.396;10.696;2022-08-11T03:57:41;14.10;99.90
29551;DHT22;16488;52.396;10.696;2022-08-11T04:00:13;14.10;99.90
29551;DHT22;16488;52.396;10.696;2022-08-11T04:15:16;13.40;99.90
29551;DHT22;16488;52.396;10.696;2022-08-11T04:32:47;13.50;99.90
29551;DHT22;16488;52.396;10.696;2022-08-11T04:35:51;13.60;99.90
29551;DHT22;16488;52.396;10.696;2022-08-11T04:45:24;13.60;99.90
29551;DHT22;16488;52.396;10.696;2022-08-11T04:57:26;13.50;99.90
29551;DHT22;16488;52.396;10.696;2022-08-11T05:00:13;13.50;99.90
29551;DHT22;16488;52.396;10.696;2022-08-11T05:03:30;13.70;99.90
29551;DHT22;16488;52.396;10.696;2022-08-11T05:06:14;13.80;99.90
29551;DHT22;16488;52.396;10.696;2022-08-11T05:11:52;14.00;99.90
29551;DHT22;16488;52.396;10.696;2022-08-11T05:17:35;14.20;99.90
29551;DHT22;16488;52.396;10.696;2022-08-11T05:20:20;14.30;99.90
29551;DHT22;16488;52.396;10.696;2022-08-11T05:23:08;14.40;99.90
29551;DHT22;16488;52.396;10.696;2022-08-11T05:25:55;14.50;99.90
29551;DHT22;16488;52.396;10.696;2022-08-11T05:28:53;14.70;99.90
29551;DHT22;16488;52.396;10.696;2022-08-11T05:31:40;14.90;99.90
29551;DHT22;16488;52.396;10.696;2022-08-11T05:34:29;15.00;99.90
29551;DHT22;16488;52.396;10.696;2022-08-11T05:40:10;15.30;99.90
29551;DHT22;16488;52.396;10.696;2022-08-11T05:43:01;15.50;99.90
29551;DHT22;16488;52.396;10.696;2022-08-11T05:45:56;15.70;99.90
29551;DHT22;16488;52.396;10.696;2022-08-11T05:48:42;15.90;99.90
29551;DHT22;16488;52.396;10.696;2022-08-11T05:51:38;16.00;99.90
29551;DHT22;16488;52.396;10.696;2022-08-11T05:54:25;16.20;99.90
29551;DHT22;16488;52.396;10.696;2022-08-11T05:57:24;16.40;99.90
29551;DHT22;16488;52.396;10.696;2022-08-11T06:00:05;16.60;99.90
29551;DHT22;16488;52.396;10.696;2022-08-11T06:02:43;16.80;99.90
29551;DHT22;16488;52.396;10.696;2022-08-11T06:05:11;17.00;99.90
29551;DHT22;16488;52.396;10.696;2022-08-11T06:07:37;17.10;99.90
29551;DHT22;16488;52.396;10.696;2022-08-11T06:10:03;17.30;99.90
29551;DHT22;16488;52.396;10.696;2022-08-11T06:12:31;17.40;99.90
29551;DHT22;16488;52.396;10.696;2022-08-11T06:15:04;17.50;99.90
29551;DHT22;16488;52.396;10.696;2022-08-11T06:17:32;17.60;99.90
29551;DHT22;16488;52.396;10.696;2022-08-11T06:20:01;17.70;99.90
29551;DHT22;16488;52.396;10.696;2022-08-11T06:22:27;17.80;99.90
29551;DHT22;16488;52.396;10.696;2022-08-11T06:25:00;17.90;99.90
29551;DHT22;16488;52.396;10.696;2022-08-11T06:27:33;17.90;99.90
29551;DHT22;16488;52.396;10.696;2022-08-11T06:30:00;18.00;99.90
29551;DHT22;16488;52.396;10.696;2022-08-11T06:32:30;18.10;99.90
29551;DHT22;16488;52.396;10.696;2022-08-11T06:40:36;18.40;99.90
29551;DHT22;16488;52.396;10.696;2022-08-11T06:43:19;18.40;99.90
29551;DHT22;16488;52.396;10.696;2022-08-11T06:45:56;18.50;99.90
29551;DHT22;16488;52.396;10.696;2022-08-11T06:48:30;18.60;99.90
29551;DHT22;16488;52.396;10.696;2022-08-11T06:51:02;18.70;99.90
29551;DHT22;16488;52.396;10.696;2022-08-11T06:53:42;18.70;99.90
29551;DHT22;16488;52.396;10.696;2022-08-11T06:56:09;18.80;99.90
29551;DHT22;16488;52.396;10.696;2022-08-11T06:58:55;18.90;99.90
29551;DHT22;16488;52.396;10.696;2022-08-11T07:02:14;19.00;99.90
29551;DHT22;16488;52.396;10.696;2022-08-11T07:04:46;19.10;99.90
29551;DHT22;16488;52.396;10.696;2022-08-11T07:07:49;19.20;99.90
29551;DHT22;16488;52.396;10.696;2022-08-11T07:13:56;19.50;99.90
29551;DHT22;16488;52.396;10.696;2022-08-11T07:16:43;19.50;99.90
29551;DHT22;16488;52.396;10.696;2022-08-11T07:19:11;19.70;99.90
29551;DHT22;16488;52.396;10.696;2022-08-11T07:21:59;19.70;99.90
29551;DHT22;16488;52.396;10.696;2022-08-11T07:27:50;19.90;99.90
29551;DHT22;16488;52.396;10.696;2022-08-11T07:30:41;20.00;99.90
29551;DHT22;16488;52.396;10.696;2022-08-11T07:33:07;20.20;99.90
29551;DHT22;16488;52.396;10.696;2022-08-11T07:35:49;20.20;99.90
29551;DHT22;16488;52.396;10.696;2022-08-11T07:38:32;20.40;99.90
29551;DHT22;16488;52.396;10.696;2022-08-11T07:41:13;20.60;99.90
29551;DHT22;16488;52.396;10.696;2022-08-11T07:43:40;20.60;99.90
29551;DHT22;16488;52.396;10.696;2022-08-11T07:46:06;20.80;99.90
29551;DHT22;16488;52.396;10.696;2022-08-11T07:48:51;20.90;99.90
29551;DHT22;16488;52.396;10.696;2022-08-11T07:51:38;21.00;99.70
29551;DHT22;16488;52.396;10.696;2022-08-11T07:54:22;21.00;99.50
29551;DHT22;16488;52.396;10.696;2022-08-11T07:56:49;21.10;99.40
29551;DHT22;16488;52.396;10.696;2022-08-11T07:59:17;21.20;99.40
29551;DHT22;16488;52.396;10.696;2022-08-11T08:02:01;21.30;99.00
29551;DHT22;16488;52.396;10.696;2022-08-11T08:04:46;21.40;98.60
29551;DHT22;16488;52.396;10.696;2022-08-11T08:07:30;21.50;98.10
29551;DHT22;16488;52.396;10.696;2022-08-11T08:10:18;21.70;96.70
29551;DHT22;16488;52.396;10.696;2022-08-11T08:13:03;21.70;97.10
29551;DHT22;16488;52.396;10.696;2022-08-11T08:15:48;21.80;96.70
29551;DHT22;16488;52.396;10.696;2022-08-11T08:18:36;21.90;96.80
29551;DHT22;16488;52.396;10.696;2022-08-11T08:21:04;21.90;96.40
29551;DHT22;16488;52.396;10.696;2022-08-11T08:23:38;22.10;96.00
29551;DHT22;16488;52.396;10.696;2022-08-11T08:26:09;22.20;95.30
29551;DHT22;16488;52.396;10.696;2022-08-11T08:28:56;22.30;94.80
29551;DHT22;16488;52.396;10.696;2022-08-11T08:31:42;22.20;94.80
29551;DHT22;16488;52.396;10.696;2022-08-11T08:34:09;22.30;94.60
29551;DHT22;16488;52.396;10.696;2022-08-11T08:36:36;22.50;93.90
29551;DHT22;16488;52.396;10.696;2022-08-11T08:39:02;22.60;93.30
29551;DHT22;16488;52.396;10.696;2022-08-11T08:41:29;22.70;92.50
29551;DHT22;16488;52.396;10.696;2022-08-11T08:43:59;22.80;92.70
29551;DHT22;16488;52.396;10.696;2022-08-11T08:46:42;23.00;92.30
29551;DHT22;16488;52.396;10.696;2022-08-11T08:49:12;23.20;91.90
29551;DHT22;16488;52.396;10.696;2022-08-11T08:51:39;23.30;91.70
29551;DHT22;16488;52.396;10.696;2022-08-11T08:54:17;23.40;89.10
29551;DHT22;16488;52.396;10.696;2022-08-11T08:56:45;23.60;89.90
29551;DHT22;16488;52.396;10.696;2022-08-11T08:59:13;23.50;89.10
29551;DHT22;16488;52.396;10.696;2022-08-11T09:01:51;23.50;88.50
29551;DHT22;16488;52.396;10.696;2022-08-11T09:04:17;23.60;89.30
29551;DHT22;16488;52.396;10.696;2022-08-11T09:06:45;23.70;87.50
29551;DHT22;16488;52.396;10.696;2022-08-11T09:09:12;23.80;87.20
29551;DHT22;16488;52.396;10.696;2022-08-11T09:11:40;24.00;85.90
29551;DHT22;16488;52.396;10.696;2022-08-11T09:14:26;24.10;85.20
29551;DHT22;16488;52.396;10.696;2022-08-11T09:17:17;24.30;83.20
29551;DHT22;16488;52.396;10.696;2022-08-11T09:19:43;24.50;78.30
29551;DHT22;16488;52.396;10.696;2022-08-11T09:22:09;24.60;78.30
29551;DHT22;16488;52.396;10.696;2022-08-11T09:24:54;24.80;77.20
29551;DHT22;16488;52.396;10.696;2022-08-11T09:27:39;24.90;75.70
29551;DHT22;16488;52.396;10.696;2022-08-11T09:30:06;24.90;74.60
29551;DHT22;16488;52.396;10.696;2022-08-11T09:32:33;25.00;74.90
29551;DHT22;16488;52.396;10.696;2022-08-11T09:35:00;24.90;73.40
29551;DHT22;16488;52.396;10.696;2022-08-11T09:37:30;25.00;74.10
29551;DHT22;16488;52.396;10.696;2022-08-11T09:40:18;25.10;72.50
29551;DHT22;16488;52.396;10.696;2022-08-11T09:42:55;25.30;71.10
29551;DHT22;16488;52.396;10.696;2022-08-11T09:45:40;25.40;71.00
29551;DHT22;16488;52.396;10.696;2022-08-11T09:48:10;25.60;68.60
29551;DHT22;16488;52.396;10.696;2022-08-11T09:50:36;25.60;67.80
29551;DHT22;16488;52.396;10.696;2022-08-11T09:53:03;25.80;66.80
29551;DHT22;16488;52.396;10.696;2022-08-11T09:55:32;25.80;65.90
29551;DHT22;16488;52.396;10.696;2022-08-11T09:57:59;25.90;67.30
29551;DHT22;16488;52.396;10.696;2022-08-11T10:00:47;25.90;67.40
29551;DHT22;16488;52.396;10.696;2022-08-11T10:03:20;26.00;67.80
29551;DHT22;16488;52.396;10.696;2022-08-11T10:06:00;26.10;66.50
29551;DHT22;16488;52.396;10.696;2022-08-11T10:08:50;26.10;65.60
29551;DHT22;16488;52.396;10.696;2022-08-11T10:11:20;26.20;64.70
29551;DHT22;16488;52.396;10.696;2022-08-11T10:13:48;26.40;63.40
29551;DHT22;16488;52.396;10.696;2022-08-11T10:16:36;26.50;60.60
29551;DHT22;16488;52.396;10.696;2022-08-11T10:19:04;26.60;59.20
29551;DHT22;16488;52.396;10.696;2022-08-11T10:21:32;26.70;58.20
29551;DHT22;16488;52.396;10.696;2022-08-11T10:24:02;26.80;57.30
29551;DHT22;16488;52.396;10.696;2022-08-11T10:26:48;26.90;56.90
29551;DHT22;16488;52.396;10.696;2022-08-11T10:29:20;26.70;58.10
29551;DHT22;16488;52.396;10.696;2022-08-11T10:32:05;26.60;58.70
29551;DHT22;16488;52.396;10.696;2022-08-11T10:34:50;26.70;58.40
29551;DHT22;16488;52.396;10.696;2022-08-11T10:37:18;26.90;58.70
29551;DHT22;16488;52.396;10.696;2022-08-11T10:39:44;27.10;56.80
29551;DHT22;16488;52.396;10.696;2022-08-11T10:42:11;27.30;56.90
29551;DHT22;16488;52.396;10.696;2022-08-11T10:44:57;27.40;56.70
29551;DHT22;16488;52.396;10.696;2022-08-11T10:47:23;27.30;57.60
29551;DHT22;16488;52.396;10.696;2022-08-11T10:50:09;27.30;57.50
29551;DHT22;16488;52.396;10.696;2022-08-11T10:52:57;27.20;56.20
29551;DHT22;16488;52.396;10.696;2022-08-11T10:55:43;27.10;56.60
29551;DHT22;16488;52.396;10.696;2022-08-11T10:58:29;27.00;55.50
29551;DHT22;16488;52.396;10.696;2022-08-11T11:01:25;27.00;55.80
29551;DHT22;16488;52.396;10.696;2022-08-11T11:03:57;26.90;54.90
29551;DHT22;16488;52.396;10.696;2022-08-11T11:06:39;27.00;55.40
29551;DHT22;16488;52.396;10.696;2022-08-11T11:09:15;27.10;55.40
29551;DHT22;16488;52.396;10.696;2022-08-11T11:11:46;27.20;54.70
29551;DHT22;16488;52.396;10.696;2022-08-11T11:14:32;27.40;54.70
29551;DHT22;16488;52.396;10.696;2022-08-11T11:17:27;27.70;55.30
29551;DHT22;16488;52.396;10.696;2022-08-11T11:20:15;27.90;54.70
29551;DHT22;16488;52.396;10.696;2022-08-11T11:22:42;28.00;54.60
29551;DHT22;16488;52.396;10.696;2022-08-11T11:25:29;27.90;53.80
29551;DHT22;16488;52.396;10.696;2022-08-11T11:31:33;27.60;55.50
29551;DHT22;16488;52.396;10.696;2022-08-11T11:36:54;27.60;53.70
29551;DHT22;16488;52.396;10.696;2022-08-11T11:39:23;27.50;54.50
29551;DHT22;16488;52.396;10.696;2022-08-11T11:41:52;27.50;54.10
29551;DHT22;16488;52.396;10.696;2022-08-11T11:44:19;27.40;53.50
29551;DHT22;16488;52.396;10.696;2022-08-11T11:46:47;27.40;53.80
29551;DHT22;16488;52.396;10.696;2022-08-11T11:49:22;27.60;53.30
29551;DHT22;16488;52.396;10.696;2022-08-11T11:51:49;27.70;52.50
29551;DHT22;16488;52.396;10.696;2022-08-11T11:54:30;27.80;53.30
29551;DHT22;16488;52.396;10.696;2022-08-11T11:57:02;28.00;54.00
29551;DHT22;16488;52.396;10.696;2022-08-11T11:59:48;28.40;52.70
29551;DHT22;16488;52.396;10.696;2022-08-11T12:02:35;28.70;52.00
29551;DHT22;16488;52.396;10.696;2022-08-11T12:05:01;28.60;52.10
29551;DHT22;16488;52.396;10.696;2022-08-11T12:07:27;28.40;51.60
29551;DHT22;16488;52.396;10.696;2022-08-11T12:10:12;28.40;51.10
29551;DHT22;16488;52.396;10.696;2022-08-11T12:12:37;28.20;52.20
29551;DHT22;16488;52.396;10.696;2022-08-11T12:15:22;28.20;51.60
29551;DHT22;16488;52.396;10.696;2022-08-11T12:17:48;28.30;51.10
29551;DHT22;16488;52.396;10.696;2022-08-11T12:20:15;28.50;51.20
29551;DHT22;16488;52.396;10.696;2022-08-11T12:22:43;28.60;51.00
29551;DHT22;16488;52.396;10.696;2022-08-11T12:25:28;28.80;50.40
29551;DHT22;16488;52.396;10.696;2022-08-11T12:28:13;28.80;50.70
29551;DHT22;16488;52.396;10.696;2022-08-11T12:30:38;28.90;50.80
29551;DHT22;16488;52.396;10.696;2022-08-11T12:33:06;28.80;50.40
29551;DHT22;16488;52.396;10.696;2022-08-11T12:35:33;28.80;50.00
29551;DHT22;16488;52.396;10.696;2022-08-11T12:38:01;28.90;50.40
29551;DHT22;16488;52.396;10.696;2022-08-11T12:40:27;29.00;49.10
29551;DHT22;16488;52.396;10.696;2022-08-11T12:43:17;28.80;49.90
29551;DHT22;16488;52.396;10.696;2022-08-11T12:46:37;28.60;49.60
29551;DHT22;16488;52.396;10.696;2022-08-11T12:48:58;28.60;50.60
29551;DHT22;16488;52.396;10.696;2022-08-11T12:51:50;28.50;50.20
29551;DHT22;16488;52.396;10.696;2022-08-11T12:57:05;28.60;49.70
29551;DHT22;16488;52.396;10.696;2022-08-11T12:59:53;28.60;49.10
29551;DHT22;16488;52.396;10.696;2022-08-11T13:02:39;28.70;48.90
29551;DHT22;16488;52.396;10.696;2022-08-11T13:05:24;28.80;48.70
29551;DHT22;16488;52.396;10.696;2022-08-11T13:07:52;28.90;48.20
29551;DHT22;16488;52.396;10.696;2022-08-11T13:10:18;29.00;48.10
29551;DHT22;16488;52.396;10.696;2022-08-11T13:13:05;29.00;48.20
29551;DHT22;16488;52.396;10.696;2022-08-11T13:15:31;29.00;46.70
29551;DHT22;16488;52.396;10.696;2022-08-11T13:17:58;28.80;46.50
29551;DHT22;16488;52.396;10.696;2022-08-11T13:20:25;28.90;46.60
29551;DHT22;16488;52.396;10.696;2022-08-11T13:22:55;28.90;46.70
29551;DHT22;16488;52.396;10.696;2022-08-11T13:25:24;28.90;45.60
29551;DHT22;16488;52.396;10.696;2022-08-11T13:27:52;28.90;45.50
29551;DHT22;16488;52.396;10.696;2022-08-11T13:30:18;28.90;45.90
29551;DHT22;16488;52.396;10.696;2022-08-11T13:33:03;28.90;46.00
29551;DHT22;16488;52.396;10.696;2022-08-11T13:35:32;28.90;45.60
29551;DHT22;16488;52.396;10.696;2022-08-11T13:38:01;29.00;46.70
29551;DHT22;16488;52.396;10.696;2022-08-11T13:40:28;29.10;46.30
29551;DHT22;16488;52.396;10.696;2022-08-11T13:42:55;29.20;46.40
29551;DHT22;16488;52.396;10.696;2022-08-11T13:45:24;29.20;45.20
29551;DHT22;16488;52.396;10.696;2022-08-11T13:47:53;29.00;45.50
29551;DHT22;16488;52.396;10.696;2022-08-11T13:50:19;29.10;45.90
29551;DHT22;16488;52.396;10.696;2022-08-11T13:52:48;29.10;45.30
29551;DHT22;16488;52.396;10.696;2022-08-11T13:55:14;29.10;45.50
29551;DHT22;16488;52.396;10.696;2022-08-11T13:57:51;29.20;44.90
29551;DHT22;16488;52.396;10.696;2022-08-11T14:00:17;29.50;45.10
29551;DHT22;16488;52.396;10.696;2022-08-11T14:02:44;29.50;45.10
29551;DHT22;16488;52.396;10.696;2022-08-11T14:05:15;29.50;45.50
29551;DHT22;16488;52.396;10.696;2022-08-11T14:07:50;29.70;45.90
29551;DHT22;16488;52.396;10.696;2022-08-11T14:10:19;29.60;45.00
29551;DHT22;16488;52.396;10.696;2022-08-11T14:12:53;29.50;44.60
29551;DHT22;16488;52.396;10.696;2022-08-11T14:15:41;29.50;44.90
29551;DHT22;16488;52.396;10.696;2022-08-11T14:18:19;29.50;45.40
29551;DHT22;16488;52.396;10.696;2022-08-11T14:20:52;29.50;45.50
29551;DHT22;16488;52.396;10.696;2022-08-11T14:23:42;29.60;45.80
29551;DHT22;16488;52.396;10.696;2022-08-11T14:26:09;29.50;44.70
29551;DHT22;16488;52.396;10.696;2022-08-11T14:28:50;29.50;44.80
29551;DHT22;16488;52.396;10.696;2022-08-11T14:31:21;29.60;45.90
29551;DHT22;16488;52.396;10.696;2022-08-11T14:33:48;29.60;45.70
29551;DHT22;16488;52.396;10.696;2022-08-11T14:36:15;29.70;45.70
29551;DHT22;16488;52.396;10.696;2022-08-11T14:38:42;29.80;45.80
29551;DHT22;16488;52.396;10.696;2022-08-11T14:41:08;29.80;44.50
29551;DHT22;16488;52.396;10.696;2022-08-11T14:43:55;29.80;45.20
29551;DHT22;16488;52.396;10.696;2022-08-11T14:46:41;29.80;45.60
29551;DHT22;16488;52.396;10.696;2022-08-11T14:49:27;29.70;45.20
29551;DHT22;16488;52.396;10.696;2022-08-11T14:51:53;29.70;45.30
29551;DHT22;16488;52.396;10.696;2022-08-11T14:54:28;29.60;45.50
29551;DHT22;16488;52.396;10.696;2022-08-11T14:57:13;29.70;45.10
29551;DHT22;16488;52.396;10.696;2022-08-11T14:59:39;29.60;44.70
29551;DHT22;16488;52.396;10.696;2022-08-11T15:02:05;29.60;44.40
29551;DHT22;16488;52.396;10.696;2022-08-11T15:04:50;29.60;45.00
29551;DHT22;16488;52.396;10.696;2022-08-11T15:07:16;29.60;45.60
29551;DHT22;16488;52.396;10.696;2022-08-11T15:09:42;29.60;45.60
29551;DHT22;16488;52.396;10.696;2022-08-11T15:12:09;29.70;44.60
29551;DHT22;16488;52.396;10.696;2022-08-11T15:14:46;29.70;45.10
29551;DHT22;16488;52.396;10.696;2022-08-11T15:17:32;29.80;44.70
29551;DHT22;16488;52.396;10.696;2022-08-11T15:20:03;29.90;43.40
29551;DHT22;16488;52.396;10.696;2022-08-11T15:22:47;30.00;43.90
29551;DHT22;16488;52.396;10.696;2022-08-11T15:26:01;29.90;43.60
29551;DHT22;16488;52.396;10.696;2022-08-11T15:28:33;29.90;43.20
29551;DHT22;16488;52.396;10.696;2022-08-11T15:31:22;29.90;43.00
29551;DHT22;16488;52.396;10.696;2022-08-11T15:33:54;30.00;43.40
29551;DHT22;16488;52.396;10.696;2022-08-11T15:36:43;29.90;42.60
29551;DHT22;16488;52.396;10.696;2022-08-11T15:42:30;29.80;43.00
29551;DHT22;16488;52.396;10.696;2022-08-11T15:45:16;29.80;43.80
29551;DHT22;16488;52.396;10.696;2022-08-11T15:48:10;29.90;43.60
29551;DHT22;16488;52.396;10.696;2022-08-11T15:50:44;29.90;42.60
29551;DHT22;16488;52.396;10.696;2022-08-11T15:53:34;29.90;42.90
29551;DHT22;16488;52.396;10.696;2022-08-11T15:56:04;30.00;42.30
29551;DHT22;16488;52.396;10.696;2022-08-11T15:58:35;30.00;42.00
29551;DHT22;16488;52.396;10.696;2022-08-11T16:01:22;30.00;42.30
29551;DHT22;16488;52.396;10.696;2022-08-11T16:04:15;29.90;41.60
29551;DHT22;16488;52.396;10.696;2022-08-11T16:06:54;29.80;41.70
29551;DHT22;16488;52.396;10.696;2022-08-11T16:09:34;29.90;42.50
29551;DHT22;16488;52.396;10.696;2022-08-11T16:12:07;29.90;41.40
29551;DHT22;16488;52.396;10.696;2022-08-11T16:14:36;30.00;41.80
29551;DHT22;16488;52.396;10.696;2022-08-11T16:17:24;30.00;41.80
29551;DHT22;16488;52.396;10.696;2022-08-11T16:19:53;29.90;41.80
29551;DHT22;16488;52.396;10.696;2022-08-11T16:22:23;29.90;42.00
29551;DHT22;16488;52.396;10.696;2022-08-11T16:24:53;30.00;42.30
29551;DHT22;16488;52.396;10.696;2022-08-11T16:27:20;30.10;43.50
29551;DHT22;16488;52.396;10.696;2022-08-11T16:29:49;30.10;42.20
29551;DHT22;16488;52.396;10.696;2022-08-11T16:32:18;30.10;42.40
29551;DHT22;16488;52.396;10.696;2022-08-11T16:34:59;30.00;41.90
29551;DHT22;16488;52.396;10.696;2022-08-11T16:37:44;30.00;41.60
29551;DHT22;16488;52.396;10.696;2022-08-11T16:40:30;29.90;42.20
29551;DHT22;16488;52.396;10.696;2022-08-11T16:42:57;29.80;41.50
29551;DHT22;16488;52.396;10.696;2022-08-11T16:45:42;29.80;41.90
29551;DHT22;16488;52.396;10.696;2022-08-11T16:48:31;29.70;42.50
29551;DHT22;16488;52.396;10.696;2022-08-11T16:50:57;29.80;43.20
29551;DHT22;16488;52.396;10.696;2022-08-11T16:53:28;29.80;42.10
29551;DHT22;16488;52.396;10.696;2022-08-11T16:55:55;29.80;42.00
29551;DHT22;16488;52.396;10.696;2022-08-11T16:58:23;29.70;42.10
29551;DHT22;16488;52.396;10.696;2022-08-11T17:01:08;29.60;42.60
29551;DHT22;16488;52.396;10.696;2022-08-11T17:03:42;29.60;43.10
29551;DHT22;16488;52.396;10.696;2022-08-11T17:06:28;29.70;43.30
29551;DHT22;16488;52.396;10.696;2022-08-11T17:09:18;29.60;43.00
29551;DHT22;16488;52.396;10.696;2022-08-11T17:12:25;29.50;42.90
29551;DHT22;16488;52.396;10.696;2022-08-11T17:15:14;29.50;43.00
29551;DHT22;16488;52.396;10.696;2022-08-11T17:18:02;29.50;42.40
29551;DHT22;16488;52.396;10.696;2022-08-11T17:20:29;29.40;42.00
29551;DHT22;16488;52.396;10.696;2022-08-11T17:22:55;29.30;42.00
29551;DHT22;16488;52.396;10.696;2022-08-11T17:25:41;29.30;42.50
29551;DHT22;16488;52.396;10.696;2022-08-11T17:28:07;29.20;42.80
29551;DHT22;16488;52.396;10.696;2022-08-11T17:30:34;29.20;42.50
29551;DHT22;16488;52.396;10.696;2022-08-11T17:33:24;29.20;42.60
29551;DHT22;16488;52.396;10.696;2022-08-11T17:36:23;29.00;42.70
29551;DHT22;16488;52.396;10.696;2022-08-11T17:38:49;29.00;43.10
29551;DHT22;16488;52.396;10.696;2022-08-11T17:41:15;29.00;43.30
29551;DHT22;16488;52.396;10.696;2022-08-11T17:44:02;28.90;43.50
29551;DHT22;16488;52.396;10.696;2022-08-11T17:46:46;28.80;43.50
29551;DHT22;16488;52.396;10.696;2022-08-11T17:49:33;28.80;43.70
29551;DHT22;16488;52.396;10.696;2022-08-11T17:52:02;28.80;44.20
29551;DHT22;16488;52.396;10.696;2022-08-11T17:54:49;28.70;43.50
29551;DHT22;16488;52.396;10.696;2022-08-11T17:57:34;28.50;44.20
29551;DHT22;16488;52.396;10.696;2022-08-11T18:00:20;28.50;44.90
29551;DHT22;16488;52.396;10.696;2022-08-11T18:02:47;28.30;45.40
29551;DHT22;16488;52.396;10.696;2022-08-11T18:05:35;28.30;44.50
29551;DHT22;16488;52.396;10.696;2022-08-11T18:08:07;28.10;45.20
29551;DHT22;16488;52.396;10.696;2022-08-11T18:10:52;28.10;45.40
29551;DHT22;16488;52.396;10.696;2022-08-11T18:13:39;28.00;46.40
29551;DHT22;16488;52.396;10.696;2022-08-11T18:16:24;27.90;46.70
29551;DHT22;16488;52.396;10.696;2022-08-11T18:19:09;27.80;47.50
29551;DHT22;16488;52.396;10.696;2022-08-11T18:21:58;27.60;47.40
29551;DHT22;16488;52.396;10.696;2022-08-11T18:24:47;27.50;47.90
29551;DHT22;16488;52.396;10.696;2022-08-11T18:27:33;27.40;48.10
29551;DHT22;16488;52.396;10.696;2022-08-11T18:30:17;27.30;48.00
29551;DHT22;16488;52.396;10.696;2022-08-11T18:33:03;27.10;48.70
29551;DHT22;16488;52.396;10.696;2022-08-11T18:35:52;27.00;49.60
29551;DHT22;16488;52.396;10.696;2022-08-11T18:38:38;26.90;49.30
29551;DHT22;16488;52.396;10.696;2022-08-11T18:41:26;26.80;49.60
29551;DHT22;16488;52.396;10.696;2022-08-11T18:44:13;26.70;50.90
29551;DHT22;16488;52.396;10.696;2022-08-11T18:47:01;26.60;51.50
29551;DHT22;16488;52.396;10.696;2022-08-11T18:49:48;26.40;51.80
29551;DHT22;16488;52.396;10.696;2022-08-11T18:52:36;26.30;51.40
29551;DHT22;16488;52.396;10.696;2022-08-11T18:55:22;26.20;51.80
29551;DHT22;16488;52.396;10.696;2022-08-11T18:58:09;25.90;52.50
29551;DHT22;16488;52.396;10.696;2022-08-11T19:00:57;25.80;52.70
29551;DHT22;16488;52.396;10.696;2022-08-11T19:03:44;25.70;52.70
29551;DHT22;16488;52.396;10.696;2022-08-11T19:06:31;25.70;53.80
29551;DHT22;16488;52.396;10.696;2022-08-11T19:09:17;25.60;53.80